createdAt,value
2022-10-21T00:01:03.529Z,101026.81
2022-10-21T00:03:29.955Z,101027.03
2022-10-21T00:05:56.289Z,101037.25
2022-10-21T00:08:22.575Z,101039.94
2022-10-21T00:10:49.315Z,101032.09
2022-10-21T00:13:15.823Z,101023.16
2022-10-21T00:15:42.200Z,101016.97
2022-10-21T00:18:08.478Z,101003.94
2022-10-21T00:20:37.460Z,101007.47
2022-10-21T00:23:06.030Z,100999.63
2022-10-21T00:25:32.617Z,101012.03
2022-10-21T00:27:58.977Z,101008.75
2022-10-21T00:30:25.313Z,100997.97
2022-10-21T00:32:51.690Z,101001.72
2022-10-21T00:35:18.471Z,101001.13
2022-10-21T00:37:44.814Z,101002.19
2022-10-21T00:40:11.647Z,101004.91
2022-10-21T00:42:39.722Z,101000.53
2022-10-21T00:45:08.679Z,100990.00
2022-10-21T00:47:35.089Z,100992.44
2022-10-21T00:50:01.452Z,100989.19
2022-10-21T00:52:28.005Z,100981.09
2022-10-21T00:54:54.303Z,100975.34
2022-10-21T00:57:20.730Z,100972.66
2022-10-21T00:59:47.082Z,100975.34
2022-10-21T01:02:13.404Z,100975.59
2022-10-21T01:04:39.924Z,100967.50
2022-10-21T01:07:06.890Z,100973.13
2022-10-21T01:09:35.295Z,100969.59
2022-10-21T01:12:02.015Z,100979.56
2022-10-21T01:14:28.643Z,100974.41
2022-10-21T01:16:55.303Z,100963.03
2022-10-21T01:19:21.648Z,100960.31
2022-10-21T01:21:48.031Z,100950.38
2022-10-21T01:24:14.404Z,100940.88
2022-10-21T01:26:40.795Z,100946.28
2022-10-21T01:29:07.175Z,100941.13
2022-10-21T01:31:33.497Z,100919.56
2022-10-21T01:34:00.035Z,100901.50
2022-10-21T01:36:26.329Z,100900.91
2022-10-21T01:38:52.656Z,100903.63
2022-10-21T01:41:18.964Z,100951.06
2022-10-21T01:43:45.427Z,100958.81
2022-10-21T01:46:11.787Z,100951.56
2022-10-21T01:48:42.756Z,100954.25
2022-10-21T01:51:09.030Z,100944.50
2022-10-21T01:53:35.420Z,100950.94
2022-10-21T01:56:01.845Z,100950.94
2022-10-21T01:58:28.162Z,100947.69
2022-10-21T02:00:54.420Z,100947.91
2022-10-21T02:03:20.955Z,100947.69
2022-10-21T02:05:47.322Z,100947.09
2022-10-21T02:08:13.612Z,100943.59
2022-10-21T02:10:40.035Z,100921.41
2022-10-21T02:13:06.403Z,100926.81
2022-10-21T02:15:32.766Z,100927.66
2022-10-21T02:17:59.115Z,100921.41
2022-10-21T02:20:25.400Z,100910.06
2022-10-21T02:22:51.690Z,100903.84
2022-10-21T02:25:18.198Z,100903.84
2022-10-21T02:27:44.624Z,100887.69
2022-10-21T02:30:11.014Z,100871.50
2022-10-21T02:32:37.624Z,100861.78
2022-10-21T02:35:04.194Z,100851.00
2022-10-21T02:37:30.496Z,100843.16
2022-10-21T02:39:56.908Z,100833.22
2022-10-21T02:42:23.222Z,100819.16
2022-10-21T02:44:49.509Z,100819.16
2022-10-21T02:47:15.911Z,100818.56
2022-10-21T02:49:42.281Z,100814.81
2022-10-21T02:52:08.549Z,100803.22
2022-10-21T02:54:35.074Z,100796.19
2022-10-21T02:57:01.324Z,100781.88
2022-10-21T02:59:27.861Z,100792.66
2022-10-21T03:01:54.239Z,100798.88
2022-10-21T03:04:20.657Z,100814.22
2022-10-21T03:06:47.016Z,100819.59
2022-10-21T03:09:13.415Z,100812.59
2022-10-21T03:11:39.946Z,100815.28
2022-10-21T03:14:06.676Z,100817.19
2022-10-21T03:16:33.251Z,100828.97
2022-10-21T03:18:59.545Z,100825.50
2022-10-21T03:21:25.906Z,100822.78
2022-10-21T03:23:52.179Z,100813.88
2022-10-21T03:26:18.618Z,100808.50
2022-10-21T03:28:44.964Z,100800.66
2022-10-21T03:31:11.698Z,100806.03
2022-10-21T03:33:38.092Z,100800.66
2022-10-21T03:36:04.512Z,100810.63
2022-10-21T03:38:30.856Z,100809.78
2022-10-21T03:40:57.129Z,100799.25
2022-10-21T03:43:23.932Z,100795.47
2022-10-21T03:45:50.393Z,100808.16
2022-10-21T03:48:16.966Z,100814.59
2022-10-21T03:50:43.344Z,100823.72
2022-10-21T03:53:18.612Z,100816.47
2022-10-21T03:55:54.291Z,100805.09
2022-10-21T03:58:22.913Z,100808.63
2022-10-21T04:00:49.220Z,100801.38
2022-10-21T04:03:15.660Z,100809.69
2022-10-21T04:05:41.929Z,100814.25
2022-10-21T04:08:08.180Z,100801.00
2022-10-21T04:10:34.671Z,100799.97
2022-10-21T04:13:01.055Z,100796.44
2022-10-21T04:15:27.409Z,100793.97
2022-10-21T04:17:53.777Z,100796.66
2022-10-21T04:20:20.128Z,100790.47
2022-10-21T04:22:46.540Z,100784.25
2022-10-21T04:25:12.814Z,100774.56
2022-10-21T04:27:39.130Z,100762.94
2022-10-21T04:30:05.541Z,100755.06
2022-10-21T04:32:31.807Z,100749.69
2022-10-21T04:34:58.207Z,100746.97
2022-10-21T04:37:24.555Z,100738.91
2022-10-21T04:39:50.933Z,100739.97
2022-10-21T04:42:17.475Z,100763.38
2022-10-21T04:44:43.765Z,100759.88
2022-10-21T04:47:10.041Z,100729.44
2022-10-21T04:49:36.328Z,100719.72
2022-10-21T04:52:02.676Z,100734.25
2022-10-21T04:54:29.006Z,100721.56
2022-10-21T04:56:55.370Z,100707.31
2022-10-21T04:59:21.614Z,100716.41
2022-10-21T05:01:48.192Z,100722.63
2022-10-21T05:04:14.605Z,100709.41
2022-10-21T05:06:40.988Z,100704.84
2022-10-21T05:09:07.395Z,100704.03
2022-10-21T05:11:33.729Z,100701.56
2022-10-21T05:13:59.975Z,100702.38
2022-10-21T05:16:26.593Z,100693.47
2022-10-21T05:18:52.902Z,100704.25
2022-10-21T05:21:19.805Z,100703.22
2022-10-21T05:23:46.056Z,100688.09
2022-10-21T05:26:12.327Z,100677.56
2022-10-21T05:28:38.678Z,100677.56
2022-10-21T05:31:05.017Z,100681.06
2022-10-21T05:33:31.331Z,100680.25
2022-10-21T05:35:57.605Z,100666.78
2022-10-21T05:38:24.206Z,100670.53
2022-10-21T05:40:50.603Z,100668.69
2022-10-21T05:43:16.918Z,100677.81
2022-10-21T05:45:43.717Z,100665.16
2022-10-21T05:48:12.524Z,100664.59
2022-10-21T05:50:40.883Z,100674.84
2022-10-21T05:53:07.527Z,100684.22
2022-10-21T05:55:33.908Z,100698.75
2022-10-21T05:58:00.185Z,100706.84
2022-10-21T06:00:26.670Z,100695.28
2022-10-21T06:02:52.985Z,100689.06
2022-10-21T06:05:19.354Z,100686.38
2022-10-21T06:07:45.699Z,100690.91
2022-10-21T06:10:11.980Z,100680.38
2022-10-21T06:12:38.312Z,100672.31
2022-10-21T06:15:04.683Z,100680.38
2022-10-21T06:17:30.984Z,100680.38
2022-10-21T06:19:57.368Z,100686.59
2022-10-21T06:22:23.620Z,100683.34
2022-10-21T06:24:50.158Z,100678.75
2022-10-21T06:27:16.539Z,100673.34
2022-10-21T06:29:43.084Z,100668.81
2022-10-21T06:32:09.378Z,100651.25
2022-10-21T06:34:36.150Z,100650.19
2022-10-21T06:37:02.974Z,100659.91
2022-10-21T06:39:30.268Z,100664.72
2022-10-21T06:41:56.721Z,100667.41
2022-10-21T06:44:23.211Z,100668.94
2022-10-21T06:46:49.755Z,100671.63
2022-10-21T06:49:16.071Z,100679.94
2022-10-21T06:51:42.434Z,100674.56
2022-10-21T06:54:08.936Z,100679.94
2022-10-21T06:56:35.479Z,100682.63
2022-10-21T06:59:01.960Z,100681.81
2022-10-21T07:01:34.779Z,100696.09
2022-10-21T07:04:07.675Z,100723.84
2022-10-21T07:09:00.443Z,100710.63
2022-10-21T07:11:28.988Z,100719.50
2022-10-21T07:13:55.308Z,100723.47
2022-10-21T07:16:21.715Z,100725.38
2022-10-21T07:18:48.546Z,100722.41
2022-10-21T07:21:15.131Z,100714.34
2022-10-21T07:23:41.526Z,100724.31
2022-10-21T07:26:07.900Z,100729.69
2022-10-21T07:28:34.268Z,100732.38
2022-10-21T07:31:00.605Z,100728.06
2022-10-21T07:33:27.412Z,100723.72
2022-10-21T07:35:53.802Z,100723.72
2022-10-21T07:38:22.270Z,100715.41
2022-10-21T07:40:49.622Z,100711.06
2022-10-21T07:43:16.451Z,100715.63
2022-10-21T07:45:42.855Z,100703.22
2022-10-21T07:48:09.609Z,100699.75
2022-10-21T07:50:36.152Z,100701.59
2022-10-21T07:53:11.873Z,100700.78
2022-10-21T07:55:38.928Z,100703.47
2022-10-21T07:58:05.340Z,100697.28
2022-10-21T08:00:31.663Z,100704.28
2022-10-21T08:02:58.031Z,100691.91
2022-10-21T08:05:24.479Z,100689.19
2022-10-21T08:10:19.699Z,100683.81
2022-10-21T08:12:46.295Z,100697.28
2022-10-21T08:15:12.770Z,100695.63
2022-10-21T08:17:39.115Z,100691.06
2022-10-21T08:20:05.482Z,100679.47
2022-10-21T08:22:31.936Z,100679.47
2022-10-21T08:24:58.290Z,100677.84
2022-10-21T08:27:24.835Z,100676.78
2022-10-21T08:29:51.397Z,100675.16
2022-10-21T08:32:17.712Z,100668.97
2022-10-21T08:34:44.165Z,100661.69
2022-10-21T08:37:10.661Z,100658.19
2022-10-21T08:39:37.144Z,100669.75
2022-10-21T08:42:03.510Z,100660.06
2022-10-21T08:44:30.555Z,100641.22
2022-10-21T08:46:57.185Z,100642.84
2022-10-21T08:49:25.177Z,100648.22
2022-10-21T08:51:54.799Z,100656.53
2022-10-21T08:54:21.154Z,100650.34
2022-10-21T08:56:47.536Z,100644.13
2022-10-21T08:59:13.926Z,100644.13
2022-10-21T09:01:40.225Z,100650.34
2022-10-21T09:04:06.697Z,100658.19
2022-10-21T09:06:33.307Z,100649.28
2022-10-21T09:08:59.757Z,100641.69
2022-10-21T09:11:26.166Z,100642.50
2022-10-21T09:13:52.895Z,100629.03
2022-10-21T09:16:19.356Z,100620.97
2022-10-21T09:18:46.064Z,100624.72
2022-10-21T09:21:12.466Z,100623.91
2022-10-21T09:23:38.830Z,100612.06
2022-10-21T09:26:05.168Z,100602.34
2022-10-21T09:28:31.973Z,100596.16
2022-10-21T09:30:58.367Z,100594.28
2022-10-21T09:33:24.797Z,100593.44
2022-10-21T09:35:51.167Z,100601.28
2022-10-21T09:38:17.613Z,100596.16
2022-10-21T09:40:43.970Z,100605.06
2022-10-21T09:43:10.340Z,100611.50
2022-10-21T09:45:36.679Z,100598.84
2022-10-21T09:48:03.150Z,100598.03
2022-10-21T09:50:29.780Z,100596.16
2022-10-21T09:52:56.197Z,100599.66
2022-10-21T09:55:22.763Z,100605.06
2022-10-21T09:57:49.140Z,100606.13
2022-10-21T10:00:15.707Z,100601.78
2022-10-21T10:02:42.235Z,100606.13
2022-10-21T10:08:02.059Z,100600.13
2022-10-21T10:10:28.487Z,100602.59
2022-10-21T10:12:54.837Z,100598.28
2022-10-21T10:15:21.229Z,100592.88
2022-10-21T10:17:47.570Z,100597.44
2022-10-21T10:20:14.267Z,100592.06
2022-10-21T10:22:41.177Z,100586.69
2022-10-21T10:30:50.101Z,100576.00
2022-10-21T10:33:16.619Z,100567.84
2022-10-21T10:35:43.058Z,100561.41
2022-10-21T10:38:09.512Z,100567.38
2022-10-21T10:40:36.120Z,100569.22
2022-10-21T10:43:03.214Z,100558.00
2022-10-21T10:45:29.594Z,100551.31
2022-10-21T10:47:56.007Z,100552.38
2022-10-21T10:50:22.650Z,100552.69
2022-10-21T10:52:49.088Z,100551.91
2022-10-21T10:55:15.527Z,100545.69
2022-10-21T10:57:45.937Z,100549.44
2022-10-21T11:00:24.975Z,100543.00
2022-10-21T11:02:51.461Z,100538.44
2022-10-21T11:05:17.868Z,100541.69
2022-10-21T11:07:44.249Z,100539.25
2022-10-21T11:10:10.881Z,100537.16
2022-10-21T11:12:37.496Z,100543.59
2022-10-21T11:15:04.072Z,100541.69
2022-10-21T11:17:30.421Z,100536.56
2022-10-21T11:19:56.905Z,100549.78
2022-10-21T11:22:23.369Z,100540.06
2022-10-21T11:24:49.926Z,100533.06
2022-10-21T11:27:19.036Z,100533.06
2022-10-21T11:29:45.933Z,100528.25
2022-10-21T11:32:12.606Z,100526.03
2022-10-21T11:34:39.210Z,100527.69
2022-10-21T11:37:05.506Z,100513.38
2022-10-21T11:39:31.867Z,100516.91
2022-10-21T11:44:50.106Z,100514.44
2022-10-21T11:47:16.524Z,100509.88
2022-10-21T11:49:42.979Z,100509.88
2022-10-21T11:52:09.330Z,100520.91
2022-10-21T11:54:35.907Z,100527.91
2022-10-21T11:57:04.412Z,100530.84
2022-10-21T11:59:30.829Z,100536.22
2022-10-21T12:01:57.279Z,100534.38
2022-10-21T12:04:23.907Z,100539.25
2022-10-21T12:06:50.392Z,100542.44
2022-10-21T12:09:16.774Z,100539.16
2022-10-21T12:11:43.612Z,100542.66
2022-10-21T12:14:10.209Z,100538.31
2022-10-21T12:16:37.135Z,100528.63
2022-10-21T12:19:03.775Z,100530.00
2022-10-21T12:21:30.351Z,100526.53
2022-10-21T12:23:56.887Z,100529.22
2022-10-21T12:26:23.360Z,100528.38
2022-10-21T12:28:49.821Z,100534.00
2022-10-21T12:31:16.404Z,100525.94
2022-10-21T12:33:42.864Z,100527.00
2022-10-21T12:36:09.147Z,100535.06
2022-10-21T12:38:35.696Z,100528.84
2022-10-21T12:41:02.118Z,100524.28
2022-10-21T12:43:28.597Z,100521.59
2022-10-21T12:45:55.041Z,100523.47
2022-10-21T12:48:21.417Z,100520.78
2022-10-21T12:50:48.024Z,100521.03
2022-10-21T12:53:14.408Z,100518.34
2022-10-21T12:55:40.874Z,100526.44
2022-10-21T12:58:07.255Z,100523.13
2022-10-21T13:00:33.709Z,100520.22
2022-10-21T13:03:00.099Z,100526.66
2022-10-21T13:05:26.573Z,100518.81
2022-10-21T13:07:53.826Z,100525.84
2022-10-21T13:10:20.258Z,100519.63
2022-10-21T13:15:30.830Z,100516.94
2022-10-21T13:17:57.324Z,100506.44
2022-10-21T13:20:23.777Z,100509.13
2022-10-21T13:22:50.160Z,100505.59
2022-10-21T13:25:16.630Z,100494.00
2022-10-21T13:27:43.129Z,100490.50
2022-10-21T13:30:09.526Z,100490.50
2022-10-21T13:32:35.985Z,100494.00
2022-10-21T13:35:02.520Z,100487.00
2022-10-21T13:37:29.481Z,100490.50
2022-10-21T13:39:55.896Z,100486.16
2022-10-21T13:42:24.950Z,100496.94
2022-10-21T13:44:51.721Z,100499.63
2022-10-21T13:47:18.091Z,100495.06
2022-10-21T13:49:44.643Z,100506.91
2022-10-21T13:52:11.182Z,100502.31
2022-10-21T13:54:37.663Z,100510.38
2022-10-21T13:57:04.153Z,100498.81
2022-10-21T13:59:30.604Z,100499.88
2022-10-21T14:01:56.928Z,100498.81
2022-10-21T14:04:23.660Z,100499.06
2022-10-21T14:06:50.121Z,100509.59
2022-10-21T14:09:16.597Z,100504.44
2022-10-21T14:11:42.983Z,100503.38
2022-10-21T14:14:09.465Z,100499.06
2022-10-21T14:16:35.822Z,100501.97
2022-10-21T14:19:02.248Z,100494.50
2022-10-21T14:21:28.540Z,100486.44
2022-10-21T14:23:55.751Z,100490.97
2022-10-21T14:26:23.327Z,100480.44
2022-10-21T14:28:49.724Z,100483.16
2022-10-21T14:31:16.101Z,100488.53
2022-10-21T14:33:42.524Z,100482.06
2022-10-21T14:36:08.965Z,100482.91
2022-10-21T14:38:35.341Z,100490.41
2022-10-21T14:41:01.774Z,100480.44
2022-10-21T14:43:28.235Z,100474.28
2022-10-21T14:45:54.624Z,100473.44
2022-10-21T14:48:21.011Z,100469.13
2022-10-21T14:50:47.373Z,100466.44
2022-10-21T14:53:13.999Z,100466.44
2022-10-21T14:55:40.539Z,100464.78
2022-10-21T14:58:06.847Z,100461.06
2022-10-21T15:00:33.274Z,100456.69
2022-10-21T15:02:59.718Z,100458.38
2022-10-21T15:05:26.131Z,100463.75
2022-10-21T15:07:52.832Z,100464.78
2022-10-21T15:10:19.502Z,100458.94
2022-10-21T15:12:46.049Z,100458.13
2022-10-21T15:15:12.489Z,100452.47
2022-10-21T15:17:39.022Z,100453.53
2022-10-21T15:20:05.843Z,100444.41
2022-10-21T15:22:32.251Z,100441.97
2022-10-21T15:24:58.679Z,100444.41
2022-10-21T15:27:25.177Z,100445.47
2022-10-21T15:29:51.538Z,100446.28
2022-10-21T15:32:18.905Z,100443.38
2022-10-21T15:37:12.849Z,100448.75
2022-10-21T15:39:39.299Z,100443.59
2022-10-21T15:42:05.876Z,100441.72
2022-10-21T15:44:32.135Z,100440.09
2022-10-21T15:46:58.583Z,100442.78
2022-10-21T15:49:25.051Z,100438.22
2022-10-21T15:51:51.705Z,100438.22
2022-10-21T15:54:18.022Z,100437.41
2022-10-21T15:56:44.830Z,100433.63
2022-10-21T15:59:11.580Z,100434.69
2022-10-21T16:01:38.158Z,100427.69
2022-10-21T16:04:04.688Z,100435.78
2022-10-21T16:06:31.228Z,100432.00
2022-10-21T16:08:57.740Z,100440.09
2022-10-21T16:11:34.703Z,100449.00
2022-10-21T16:14:07.951Z,100449.00
2022-10-21T16:16:34.427Z,100443.84
2022-10-21T16:19:00.909Z,100450.84
2022-10-21T16:21:27.531Z,100450.84
2022-10-21T16:23:54.144Z,100445.69
2022-10-21T16:26:20.830Z,100451.09
2022-10-21T16:28:47.412Z,100455.66
2022-10-21T16:31:14.047Z,100445.69
2022-10-21T16:36:33.324Z,100468.28
2022-10-21T16:38:59.859Z,100466.44
2022-10-21T16:41:27.055Z,100458.59
2022-10-21T16:43:53.427Z,100456.69
2022-10-21T16:46:22.600Z,100468.28
2022-10-21T16:48:51.350Z,100468.53
2022-10-21T16:51:17.783Z,100466.66
2022-10-21T16:53:44.314Z,100475.53
2022-10-21T16:56:10.758Z,100472.28
2022-10-21T16:58:37.103Z,100472.28
2022-10-21T17:01:03.742Z,100469.59
2022-10-21T17:03:30.150Z,100482.00
2022-10-21T17:05:56.738Z,100488.44
2022-10-21T17:08:23.488Z,100487.59
2022-10-21T17:10:49.928Z,100489.25
2022-10-21T17:13:16.562Z,100492.19
2022-10-21T17:15:42.919Z,100487.38
2022-10-21T17:18:13.146Z,100495.44
2022-10-21T17:20:42.052Z,100493.81
2022-10-21T17:23:08.440Z,100489.72
2022-10-21T17:25:35.067Z,100492.97
2022-10-21T17:28:01.363Z,100490.56
2022-10-21T17:30:27.938Z,100496.75
2022-10-21T17:32:54.659Z,100495.13
2022-10-21T17:35:21.065Z,100503.19
2022-10-21T17:37:47.387Z,100505.66
2022-10-21T17:40:14.040Z,100511.03
2022-10-21T17:42:40.953Z,100505.88
2022-10-21T17:45:07.610Z,100501.56
2022-10-21T17:47:34.005Z,100498.63
2022-10-21T17:52:42.492Z,100498.63
2022-10-21T17:55:09.157Z,100497.81
2022-10-21T17:57:35.490Z,100489.97
2022-10-21T18:02:33.093Z,100498.88
2022-10-21T18:04:59.549Z,100492.41
2022-10-21T18:07:25.993Z,100495.94
2022-10-21T18:09:52.501Z,100493.47
2022-10-21T18:12:18.871Z,100489.97
2022-10-21T18:14:45.288Z,100488.34
2022-10-21T18:17:11.913Z,100488.09
2022-10-21T18:19:38.261Z,100489.97
2022-10-21T18:22:04.500Z,100480.25
2022-10-21T18:24:30.782Z,100493.47
2022-10-21T18:26:57.261Z,100489.13
2022-10-21T18:29:23.604Z,100484.59
2022-10-21T18:31:49.998Z,100485.66
2022-10-21T18:34:16.539Z,100494.50
2022-10-21T18:36:42.917Z,100499.09
2022-10-21T18:39:09.249Z,100500.97
2022-10-21T18:41:35.521Z,100495.59
2022-10-21T18:44:01.938Z,100498.28
2022-10-21T18:46:28.175Z,100482.97
2022-10-21T18:48:54.515Z,100492.09
2022-10-21T18:51:21.131Z,100491.03
2022-10-21T18:53:49.938Z,100490.44
2022-10-21T18:56:17.972Z,100492.09
2022-10-21T18:58:44.345Z,100492.31
2022-10-21T19:01:10.907Z,100492.31
2022-10-21T19:03:38.080Z,100487.75
2022-10-21T19:06:04.684Z,100490.44
2022-10-21T19:08:31.018Z,100485.88
2022-10-21T19:10:57.433Z,100501.19
2022-10-21T19:13:23.787Z,100495.81
2022-10-21T19:15:50.105Z,100491.50
2022-10-21T19:18:16.846Z,100488.56
2022-10-21T19:20:43.195Z,100486.94
2022-10-21T19:23:09.542Z,100485.06
2022-10-21T19:25:36.098Z,100490.44
2022-10-21T19:28:02.522Z,100487.75
2022-10-21T19:30:29.048Z,100487.75
2022-10-21T19:32:55.700Z,100484.25
2022-10-21T19:35:22.124Z,100479.66
2022-10-21T19:37:48.416Z,100486.94
2022-10-21T19:40:15.015Z,100489.63
2022-10-21T19:42:41.858Z,100488.81
2022-10-21T19:45:08.348Z,100487.97
2022-10-21T19:47:34.753Z,100493.34
2022-10-21T19:50:01.103Z,100494.19
2022-10-21T19:52:27.524Z,100497.72
2022-10-21T19:54:53.946Z,100495.25
2022-10-21T19:57:20.349Z,100503.31
2022-10-21T19:59:46.690Z,100511.41
2022-10-21T20:02:13.080Z,100506.00
2022-10-21T20:04:39.412Z,100515.16
2022-10-21T20:07:05.988Z,100515.94
2022-10-21T20:09:34.997Z,100513.25
2022-10-21T20:12:04.404Z,100515.94
2022-10-21T20:14:30.797Z,100512.47
2022-10-21T20:16:57.244Z,100513.25
2022-10-21T20:19:23.797Z,100516.19
2022-10-21T20:21:50.518Z,100518.88
2022-10-21T20:24:16.835Z,100510.78
2022-10-21T20:26:43.166Z,100513.50
2022-10-21T20:29:09.857Z,100508.09
2022-10-21T20:31:36.365Z,100503.56
2022-10-21T20:34:02.755Z,100498.41
2022-10-21T20:36:29.055Z,100495.72
2022-10-21T20:38:55.415Z,100495.47
2022-10-21T20:41:21.966Z,100490.34
2022-10-21T20:43:48.287Z,100496.31
2022-10-21T20:46:14.731Z,100486.59
2022-10-21T20:48:41.079Z,100480.41
2022-10-21T20:51:09.677Z,100491.16
2022-10-21T20:53:36.178Z,100477.94
2022-10-21T20:56:02.514Z,100487.66
2022-10-21T20:58:28.825Z,100490.34
2022-10-21T21:00:55.120Z,100495.72
2022-10-21T21:03:21.552Z,100510.78
2022-10-21T21:05:47.880Z,100499.25
2022-10-21T21:08:14.239Z,100502.72
2022-10-21T21:10:40.838Z,100508.38
2022-10-21T21:13:07.263Z,100508.59
2022-10-21T21:15:33.521Z,100509.16
2022-10-21T21:18:02.445Z,100511.84
2022-10-21T21:20:28.668Z,100512.09
2022-10-21T21:22:54.938Z,100510.22
2022-10-21T21:25:21.211Z,100515.63
2022-10-21T21:27:47.668Z,100519.38
2022-10-21T21:30:14.145Z,100525.53
2022-10-21T21:32:40.679Z,100519.13
2022-10-21T21:35:07.092Z,100517.25
2022-10-21T21:37:33.303Z,100518.31
2022-10-21T21:39:59.825Z,100504.84
2022-10-21T21:42:26.064Z,100504.84
2022-10-21T21:44:52.395Z,100498.63
2022-10-21T21:47:18.655Z,100497.84
2022-10-21T21:49:44.995Z,100497.59
2022-10-21T21:52:11.311Z,100490.56
2022-10-21T21:54:37.638Z,100490.56
2022-10-21T21:57:26.780Z,100484.41
2022-10-21T21:59:50.323Z,100488.13
2022-10-21T22:02:16.610Z,100488.94
2022-10-21T22:04:43.031Z,100490.00
2022-10-21T22:07:09.366Z,100497.84
2022-10-21T22:09:36.599Z,100497.00
2022-10-21T22:12:03.171Z,100497.84
2022-10-21T22:14:29.478Z,100503.22
2022-10-21T22:16:55.773Z,100508.59
2022-10-21T22:19:22.375Z,100496.19
2022-10-21T22:21:48.607Z,100494.31
2022-10-21T22:24:14.976Z,100498.88
2022-10-21T22:26:41.693Z,100500.75
2022-10-21T22:29:07.996Z,100498.88
2022-10-21T22:31:34.985Z,100507.78
2022-10-21T22:34:01.518Z,100509.63
2022-10-21T22:36:27.846Z,100509.63
2022-10-21T22:38:54.184Z,100504.25
2022-10-21T22:41:20.655Z,100499.94
2022-10-21T22:43:47.005Z,100504.53
2022-10-21T22:48:59.852Z,100514.44
2022-10-21T22:51:26.282Z,100517.97
2022-10-21T22:53:55.477Z,100519.59
2022-10-21T22:56:23.178Z,100526.84
2022-10-21T22:58:49.447Z,100531.41
2022-10-21T23:01:15.666Z,100524.97
2022-10-21T23:03:41.945Z,100518.78
2022-10-21T23:06:08.345Z,100507.22
2022-10-21T23:08:34.708Z,100516.91
2022-10-21T23:11:01.113Z,100522.28
2022-10-21T23:13:27.435Z,100519.00
2022-10-21T23:15:53.701Z,100511.53
2022-10-21T23:18:20.209Z,100506.16
2022-10-21T23:20:46.527Z,100509.06
2022-10-21T23:23:13.089Z,100501.56
2022-10-21T23:25:39.581Z,100507.44
2022-10-21T23:28:05.907Z,100497.47
2022-10-21T23:30:32.297Z,100492.94
2022-10-21T23:32:58.699Z,100497.25
2022-10-21T23:35:25.008Z,100501.84
2022-10-21T23:37:51.326Z,100504.53
2022-10-21T23:40:17.717Z,100512.81
2022-10-21T23:42:43.991Z,100507.44
2022-10-21T23:45:10.325Z,100509.91
2022-10-21T23:47:36.578Z,100506.38
2022-10-21T23:50:02.972Z,100511.75
2022-10-21T23:52:29.327Z,100519.84
2022-10-21T23:54:55.582Z,100506.63
2022-10-21T23:57:21.976Z,100502.06
2022-10-21T23:59:48.319Z,100509.06
